Time;durP1;ratioP1;P1;durP2;ratioP2;P2;SDS_P1;SDS_P2;PMS_P1;PMS_P2;Temp;Humidity;BMP_temperature;BMP_pressure;BME280_temperature;BME280_humidity;BME280_pressure;Samples;Min_cycle;Max_cycle;Signal;HPM_P1;HPM_P2
2022/12/05 00:00:33;;;;;;;35.22;19.42;;;2.40;99.90;;;;;;4731440;28;9999931;-73
2022/12/05 00:03:03;;;;;;;38.63;20.00;;;2.30;99.90;;;;;;5079711;28;20096;-73
2022/12/05 00:05:30;;;;;;;33.78;19.48;;;2.40;99.90;;;;;;5077851;28;20019;-73
2022/12/05 00:07:55;;;;;;;37.90;19.88;;;2.40;99.90;;;;;;5083566;28;20031;-74
2022/12/05 00:10:21;;;;;;;32.65;19.05;;;2.40;99.90;;;;;;5078249;28;20020;-74
2022/12/05 00:12:47;;;;;;;34.15;19.30;;;2.40;99.90;;;;;;5080631;28;20390;-73
2022/12/05 00:15:13;;;;;;;34.40;20.10;;;2.40;99.90;;;;;;5078550;28;20028;-74
2022/12/05 00:17:39;;;;;;;36.00;19.48;;;2.30;99.90;;;;;;5082371;28;20032;-73
2022/12/05 00:20:07;;;;;;;37.40;19.27;;;2.40;99.90;;;;;;5084585;28;20036;-74
2022/12/05 00:22:36;;;;;;;37.47;19.90;;;2.40;99.90;;;;;;5078793;28;20032;-73
2022/12/05 00:25:02;;;;;;;33.95;19.75;;;2.30;99.90;;;;;;5079710;28;20150;-74
2022/12/05 00:27:27;;;;;;;35.15;19.77;;;2.40;99.90;;;;;;5085056;28;20142;-74
2022/12/05 00:29:53;;;;;;;35.47;19.55;;;2.50;99.90;;;;;;5081171;28;20512;-74
2022/12/05 00:32:19;;;;;;;37.75;20.40;;;2.40;99.90;;;;;;5081041;28;20036;-73
2022/12/05 00:34:44;;;;;;;34.58;19.13;;;2.40;99.90;;;;;;5082356;28;20081;-74
2022/12/05 00:37:10;;;;;;;35.05;19.95;;;2.40;99.90;;;;;;5075409;28;20028;-74
2022/12/05 00:39:36;;;;;;;38.40;20.05;;;2.40;99.90;;;;;;5084120;28;20649;-74
2022/12/05 00:42:01;;;;;;;38.47;20.10;;;2.40;99.90;;;;;;5077764;28;20028;-74
2022/12/05 00:44:27;;;;;;;36.17;18.77;;;2.40;99.90;;;;;;5083142;28;20036;-75
2022/12/05 00:46:53;;;;;;;33.20;17.83;;;2.40;99.90;;;;;;5085163;28;20028;-74
2022/12/05 00:49:19;;;;;;;32.35;18.00;;;2.40;99.90;;;;;;5086275;28;20032;-75
2022/12/05 00:51:44;;;;;;;37.88;20.17;;;2.40;99.90;;;;;;5086003;28;20089;-75
2022/12/05 00:54:13;;;;;;;33.60;18.75;;;2.40;99.90;;;;;;5075443;28;20016;-74
2022/12/05 00:56:39;;;;;;;39.05;20.38;;;2.40;99.90;;;;;;5082695;28;20044;-74
2022/12/05 00:59:06;;;;;;;33.78;18.63;;;2.50;99.90;;;;;;5080501;28;21328;-75
2022/12/05 01:01:39;;;;;;;32.40;19.38;;;2.50;99.90;;;;;;5083932;28;20382;-74
2022/12/05 01:04:09;;;;;;;37.95;19.70;;;2.30;99.90;;;;;;5079097;28;20025;-74
2022/12/05 01:06:35;;;;;;;35.03;18.90;;;2.40;99.90;;;;;;5077874;28;20021;-74
2022/12/05 01:09:01;;;;;;;33.67;19.33;;;2.30;99.90;;;;;;5080641;28;20031;-74
2022/12/05 01:11:28;;;;;;;34.47;19.60;;;2.40;99.90;;;;;;5086114;28;20040;-74
2022/12/05 01:13:54;;;;;;;34.53;18.73;;;2.40;99.90;;;;;;5078907;28;20028;-74
2022/12/05 01:16:29;;;;;;;33.90;18.35;;;2.40;99.90;;;;;;5071972;28;20028;-73
2022/12/05 01:18:56;;;;;;;34.20;18.88;;;2.50;99.90;;;;;;5080406;28;20020;-74
2022/12/05 01:21:22;;;;;;;35.15;19.10;;;2.40;99.90;;;;;;5082673;28;20197;-73
2022/12/05 01:23:48;;;;;;;32.38;18.42;;;2.50;99.90;;;;;;5087175;28;20476;-73
2022/12/05 01:26:16;;;;;;;34.50;18.67;;;2.40;99.90;;;;;;5083037;28;20036;-73
2022/12/05 01:28:41;;;;;;;34.70;18.90;;;2.30;99.90;;;;;;5080200;28;20028;-73
2022/12/05 01:31:16;;;;;;;35.85;19.13;;;2.50;99.90;;;;;;5085187;28;20050;-74
2022/12/05 01:33:42;;;;;;;37.50;19.73;;;2.50;99.90;;;;;;5076694;28;20544;-74
2022/12/05 01:36:11;;;;;;;34.28;17.98;;;2.50;99.90;;;;;;5077956;28;20170;-74
2022/12/05 01:38:39;;;;;;;32.00;18.38;;;2.40;99.90;;;;;;5079554;28;20667;-74
2022/12/05 01:41:06;;;;;;;33.40;18.20;;;2.50;99.90;;;;;;5085026;28;20046;-73
2022/12/05 01:43:32;;;;;;;34.30;18.65;;;2.50;99.90;;;;;;5073551;28;20040;-74
2022/12/05 01:45:58;;;;;;;32.47;17.80;;;2.40;99.90;;;;;;5060267;28;20059;-73
2022/12/05 01:48:32;;;;;;;32.83;19.58;;;2.40;99.90;;;;;;5060967;28;20103;-73
2022/12/05 01:50:58;;;;;;;33.63;18.10;;;2.40;99.90;;;;;;5053230;28;20028;-73
2022/12/05 01:53:25;;;;;;;31.88;18.00;;;2.40;99.90;;;;;;5057323;28;20033;-73
2022/12/05 01:55:52;;;;;;;31.58;17.88;;;2.40;99.90;;;;;;5056658;28;20020;-72
2022/12/05 01:58:18;;;;;;;32.63;18.00;;;2.30;99.90;;;;;;5054586;28;20332;-72
2022/12/05 02:00:45;;;;;;;35.42;17.92;;;2.40;99.90;;;;;;5059646;28;20386;-72
2022/12/05 02:03:16;;;;;;;30.80;17.08;;;2.50;99.90;;;;;;5059782;28;20016;-73
2022/12/05 02:05:42;;;;;;;31.77;17.95;;;2.30;99.90;;;;;;5060684;28;20090;-73
2022/12/05 02:08:09;;;;;;;27.98;16.90;;;2.30;99.90;;;;;;5062420;28;20028;-73
2022/12/05 02:10:51;;;;;;;27.95;16.42;;;2.30;99.90;;;;;;5061809;28;20040;-72
2022/12/05 02:13:51;;;;;;;28.17;16.65;;;2.40;99.90;;;;;;5041984;28;20070;-72
2022/12/05 02:16:22;;;;;;;29.83;16.58;;;2.40;99.90;;;;;;5052671;28;20032;-73
2022/12/05 02:19:12;;;;;;;27.63;16.73;;;2.30;99.90;;;;;;5057839;28;20024;-72
2022/12/05 02:22:04;;;;;;;29.30;16.55;;;2.30;99.90;;;;;;5056113;28;20036;-72
2022/12/05 02:24:48;;;;;;;30.45;16.20;;;2.20;99.90;;;;;;5056911;28;20104;-71
2022/12/05 02:27:35;;;;;;;28.90;16.55;;;2.30;99.90;;;;;;5061689;28;20012;-72
2022/12/05 02:30:13;;;;;;;29.23;16.58;;;2.30;99.90;;;;;;5055630;28;20093;-72
2022/12/05 02:32:57;;;;;;;28.27;15.63;;;2.30;99.90;;;;;;5061308;28;20032;-72
2022/12/05 02:35:54;;;;;;;28.00;15.82;;;2.30;99.90;;;;;;5057655;28;20239;-72
2022/12/05 02:38:30;;;;;;;29.85;16.42;;;2.20;99.90;;;;;;5060586;28;20094;-72
2022/12/05 02:41:07;;;;;;;27.27;15.93;;;2.00;99.90;;;;;;5058743;28;20506;-72
2022/12/05 02:43:46;;;;;;;27.52;15.43;;;2.20;99.90;;;;;;5049343;28;20135;-72
2022/12/05 02:46:17;;;;;;;27.90;16.23;;;2.20;99.90;;;;;;5077436;28;20488;-72
2022/12/05 02:48:45;;;;;;;29.42;16.30;;;2.10;99.90;;;;;;5085894;28;20107;-72
2022/12/05 02:51:15;;;;;;;26.80;15.27;;;2.30;99.90;;;;;;5073877;28;20032;-72
2022/12/05 02:53:43;;;;;;;27.85;16.10;;;2.20;99.90;;;;;;5084532;28;20029;-72
2022/12/05 02:56:09;;;;;;;27.25;16.08;;;2.20;99.90;;;;;;5084318;28;20448;-73
2022/12/05 02:58:43;;;;;;;28.42;15.60;;;2.20;99.90;;;;;;5082530;28;20127;-72
2022/12/05 03:01:09;;;;;;;26.02;15.63;;;2.20;99.90;;;;;;5085687;28;20576;-72
2022/12/05 03:03:35;;;;;;;26.35;15.60;;;2.20;99.90;;;;;;5084558;28;20039;-72
2022/12/05 03:06:12;;;;;;;27.13;14.80;;;2.20;99.90;;;;;;5084324;28;20062;-72
2022/12/05 03:08:47;;;;;;;28.80;16.23;;;2.30;99.90;;;;;;5089502;28;20342;-73
2022/12/05 03:11:14;;;;;;;27.08;15.52;;;2.20;99.90;;;;;;5086501;28;20071;-72
2022/12/05 03:14:01;;;;;;;25.35;15.18;;;2.30;99.90;;;;;;5080935;28;20036;-72
2022/12/05 03:16:32;;;;;;;25.63;15.40;;;2.30;99.90;;;;;;5077670;28;20036;-71
2022/12/05 03:19:02;;;;;;;24.73;15.05;;;2.30;99.90;;;;;;5078394;28;20459;-72
2022/12/05 03:21:35;;;;;;;25.42;14.30;;;2.30;99.90;;;;;;5076215;28;20607;-71
2022/12/05 03:24:08;;;;;;;27.95;14.43;;;2.30;99.90;;;;;;5083302;28;20058;-71
2022/12/05 03:27:03;;;;;;;16.90;10.85;;;2.30;99.90;;;;;;5087169;28;20067;-72
2022/12/05 03:29:39;;;;;;;25.52;15.60;;;2.30;99.90;;;;;;5082924;28;20047;-71
2022/12/05 03:32:28;;;;;;;25.02;14.70;;;2.30;99.90;;;;;;5084771;28;20032;-72
2022/12/05 03:35:12;;;;;;;25.92;14.90;;;2.30;99.90;;;;;;5083392;28;20043;-71
2022/12/05 03:38:02;;;;;;;26.92;15.38;;;2.30;99.90;;;;;;5085426;28;20773;-71
2022/12/05 03:40:36;;;;;;;24.10;13.95;;;2.30;99.90;;;;;;5083140;28;20150;-71
2022/12/05 03:43:10;;;;;;;25.05;14.45;;;;;;;;;;5081653;28;20542;-71
2022/12/05 03:46:01;;;;;;;24.63;14.13;;;2.10;99.90;;;;;;5083542;28;20044;-72
2022/12/05 03:48:46;;;;;;;25.27;14.85;;;2.10;99.90;;;;;;5087569;28;20546;-71
2022/12/05 03:51:16;;;;;;;24.13;14.20;;;2.10;99.90;;;;;;5082206;28;20030;-71
2022/12/05 03:53:52;;;;;;;22.02;13.90;;;2.10;99.90;;;;;;5080260;28;20024;-71
2022/12/05 03:56:31;;;;;;;23.88;14.18;;;2.10;99.90;;;;;;5080587;28;20032;-71
2022/12/05 03:59:25;;;;;;;21.80;13.02;;;2.10;99.90;;;;;;5086655;28;20036;-71
2022/12/05 04:01:54;;;;;;;22.58;13.80;;;2.10;99.90;;;;;;5082758;28;20035;-71
2022/12/05 04:05:00;;;;;;;22.08;13.35;;;2.10;99.90;;;;;;5078145;28;20386;-71
2022/12/05 04:07:30;;;;;;;22.55;13.30;;;2.00;99.90;;;;;;5083792;28;20622;-71
2022/12/05 04:10:00;;;;;;;21.13;13.32;;;2.10;99.90;;;;;;5081913;28;20032;-71
2022/12/05 04:12:30;;;;;;;19.95;12.73;;;2.00;99.90;;;;;;5082220;28;20408;-71
2022/12/05 04:15:11;;;;;;;19.48;12.90;;;2.00;99.90;;;;;;5078737;28;20501;-71
2022/12/05 04:17:42;;;;;;;19.50;12.45;;;2.00;99.90;;;;;;5084401;28;20038;-71
2022/12/05 04:23:02;;;;;;;20.38;12.43;;;2.00;99.90;;;;;;5074791;28;20439;-71
2022/12/05 04:25:36;;;;;;;21.92;12.30;;;2.00;99.90;;;;;;5081081;28;20115;-71
2022/12/05 04:28:11;;;;;;;20.42;13.15;;;2.00;99.90;;;;;;5081581;28;20110;-71
2022/12/05 04:31:09;;;;;;;19.33;12.88;;;2.00;99.90;;;;;;5088730;28;20039;-71
2022/12/05 04:33:45;;;;;;;17.85;12.02;;;2.00;99.90;;;;;;5079270;28;20105;-71
2022/12/05 04:36:14;;;;;;;17.88;12.25;;;1.90;99.90;;;;;;5084336;28;20028;-71
2022/12/05 04:39:09;;;;;;;21.17;12.35;;;2.00;99.90;;;;;;5082989;28;20085;-71
2022/12/05 04:41:56;;;;;;;17.02;11.82;;;1.90;99.90;;;;;;5080943;28;20040;-71
2022/12/05 04:44:31;;;;;;;19.00;12.73;;;1.90;99.90;;;;;;5079022;28;20040;-71
2022/12/05 04:47:01;;;;;;;17.83;12.30;;;1.90;99.90;;;;;;5082238;28;20115;-71
2022/12/05 04:49:29;;;;;;;18.80;12.15;;;1.90;99.90;;;;;;5085292;28;20038;-71
2022/12/05 04:52:00;;;;;;;20.23;12.07;;;1.90;99.90;;;;;;5077991;28;20031;-71
2022/12/05 04:54:28;;;;;;;19.73;12.43;;;1.90;99.90;;;;;;5074535;28;20036;-71
2022/12/05 04:57:01;;;;;;;16.60;11.32;;;1.90;99.90;;;;;;5082856;28;20032;-70
2022/12/05 04:59:26;;;;;;;17.45;11.45;;;1.90;99.90;;;;;;5083586;28;20032;-71
2022/12/05 05:02:00;;;;;;;17.17;11.75;;;1.90;99.90;;;;;;5081896;28;20051;-70
2022/12/05 05:04:33;;;;;;;20.10;11.57;;;1.90;99.90;;;;;;5082354;28;20115;-71
2022/12/05 05:06:58;;;;;;;18.42;11.30;;;1.90;99.90;;;;;;5085452;28;20062;-71
2022/12/05 05:09:24;;;;;;;17.70;11.73;;;1.90;99.90;;;;;;5079590;28;21135;-71
2022/12/05 05:11:50;;;;;;;17.33;11.40;;;1.90;99.90;;;;;;5084973;28;20437;-71
2022/12/05 05:14:15;;;;;;;16.52;11.13;;;1.90;99.90;;;;;;5076646;28;20027;-71
2022/12/05 05:16:42;;;;;;;18.30;11.60;;;1.90;99.90;;;;;;5079147;28;20431;-71
2022/12/05 05:19:09;;;;;;;20.23;11.57;;;1.80;99.90;;;;;;5083272;28;20055;-71
2022/12/05 05:21:40;;;;;;;17.73;11.27;;;1.90;99.90;;;;;;5072967;28;20051;-70
2022/12/05 05:24:06;;;;;;;17.08;11.60;;;1.90;99.90;;;;;;5084408;28;20057;-71
2022/12/05 05:26:35;;;;;;;17.55;11.68;;;1.90;99.90;;;;;;5079351;28;20024;-71
2022/12/05 05:29:02;;;;;;;17.40;11.15;;;1.80;99.90;;;;;;5078043;28;20111;-71
2022/12/05 05:31:27;;;;;;;16.55;10.80;;;1.80;99.90;;;;;;5081823;28;20454;-71
2022/12/05 05:33:55;;;;;;;17.63;11.30;;;1.90;99.90;;;;;;5073134;28;20056;-70
2022/12/05 05:36:22;;;;;;;15.73;10.88;;;1.90;99.90;;;;;;5076952;28;20111;-71
2022/12/05 05:38:50;;;;;;;15.40;11.10;;;1.90;99.90;;;;;;5079720;28;20039;-71
2022/12/05 05:41:21;;;;;;;16.83;10.60;;;1.90;99.90;;;;;;5083977;28;20645;-71
2022/12/05 05:43:47;;;;;;;14.35;10.10;;;1.90;99.90;;;;;;5074178;28;20448;-71
2022/12/05 05:46:15;;;;;;;15.40;10.52;;;1.90;99.90;;;;;;5079699;28;20025;-71
2022/12/05 05:48:40;;;;;;;16.92;10.77;;;1.90;99.90;;;;;;5083958;28;20028;-71
2022/12/05 05:51:09;;;;;;;15.57;10.38;;;1.90;99.90;;;;;;5079548;28;20387;-71
2022/12/05 05:53:35;;;;;;;17.08;10.23;;;1.90;99.90;;;;;;5076183;28;21060;-71
2022/12/05 05:56:03;;;;;;;17.38;10.32;;;1.90;99.90;;;;;;5073760;28;20047;-70
2022/12/05 05:58:29;;;;;;;15.20;10.10;;;1.90;99.90;;;;;;5081082;28;20506;-70
2022/12/05 06:01:00;;;;;;;14.27;9.73;;;1.90;99.90;;;;;;5081101;28;20016;-71
2022/12/05 06:03:26;;;;;;;15.20;9.98;;;1.90;99.90;;;;;;5073075;28;20038;-70
2022/12/05 06:05:56;;;;;;;14.13;9.25;;;1.90;99.90;;;;;;5080198;28;20358;-70
2022/12/05 06:08:22;;;;;;;14.23;9.68;;;1.90;99.90;;;;;;5080723;28;20758;-70
2022/12/05 06:10:47;;;;;;;13.52;9.00;;;1.90;99.90;;;;;;5078319;28;20111;-71
2022/12/05 06:13:13;;;;;;;14.10;9.77;;;1.90;99.90;;;;;;5076959;28;20028;-70
2022/12/05 06:15:39;;;;;;;13.68;9.55;;;1.90;99.90;;;;;;5079834;28;20024;-70
2022/12/05 06:18:04;;;;;;;12.95;8.85;;;1.90;99.90;;;;;;5081677;28;20024;-71
2022/12/05 06:20:30;;;;;;;12.13;8.68;;;1.90;99.90;;;;;;5082491;28;20020;-71
2022/12/05 06:22:55;;;;;;;12.32;8.95;;;1.90;99.90;;;;;;5078674;28;20566;-71
2022/12/05 06:25:21;;;;;;;12.30;9.15;;;1.90;99.90;;;;;;5076231;28;20550;-70
2022/12/05 06:27:46;;;;;;;13.35;8.77;;;1.80;99.90;;;;;;5083149;28;20021;-71
2022/12/05 06:30:12;;;;;;;12.52;8.90;;;1.80;99.90;;;;;;5077347;28;20031;-70
2022/12/05 06:32:38;;;;;;;12.55;8.73;;;1.80;99.90;;;;;;5078948;28;20467;-70
2022/12/05 06:35:13;;;;;;;12.30;8.82;;;1.80;99.90;;;;;;5076266;28;20081;-71
2022/12/05 06:37:40;;;;;;;11.50;8.35;;;1.80;99.90;;;;;;5079722;28;20028;-70
2022/12/05 06:40:06;;;;;;;12.80;8.48;;;1.80;99.90;;;;;;5077665;28;20369;-70
2022/12/05 06:42:32;;;;;;;12.50;8.52;;;1.80;99.90;;;;;;5073312;28;20024;-70
2022/12/05 06:44:57;;;;;;;12.85;8.88;;;1.90;99.90;;;;;;5064501;28;20824;-70
2022/12/05 06:47:23;;;;;;;13.50;9.10;;;1.90;99.90;;;;;;5065396;28;20028;-70
2022/12/05 06:49:48;;;;;;;14.30;9.38;;;2.00;99.90;;;;;;5055988;28;20777;-71
2022/12/05 06:52:14;;;;;;;13.10;9.20;;;1.80;99.90;;;;;;5059365;28;20024;-71
2022/12/05 06:54:40;;;;;;;13.25;9.48;;;2.00;99.90;;;;;;5048033;28;20029;-70
2022/12/05 06:57:06;;;;;;;11.73;8.77;;;2.00;99.90;;;;;;5062169;28;20107;-70
2022/12/05 06:59:31;;;;;;;12.63;8.93;;;2.00;99.90;;;;;;5058877;28;20033;-70
2022/12/05 07:01:57;;;;;;;15.02;8.82;;;2.00;99.90;;;;;;5056234;28;20031;-70
2022/12/05 07:04:23;;;;;;;14.10;9.07;;;1.90;99.90;;;;;;5058829;28;20378;-70
2022/12/05 07:06:50;;;;;;;11.77;8.43;;;1.90;99.90;;;;;;5058420;28;20032;-71
2022/12/05 07:09:17;;;;;;;12.27;8.38;;;2.00;99.90;;;;;;5060360;28;20578;-71
2022/12/05 07:11:47;;;;;;;12.02;8.50;;;2.00;99.90;;;;;;5061387;28;20024;-71
2022/12/05 07:14:12;;;;;;;15.07;9.18;;;2.10;99.90;;;;;;5060978;28;20059;-70
2022/12/05 07:16:38;;;;;;;14.27;9.25;;;1.90;99.90;;;;;;5041075;28;20065;-70
2022/12/05 07:19:04;;;;;;;12.23;8.48;;;1.90;99.90;;;;;;5037886;28;20033;-70
2022/12/05 07:21:30;;;;;;;11.45;8.07;;;2.00;99.90;;;;;;5053150;28;20012;-71
2022/12/05 07:23:56;;;;;;;14.90;8.57;;;2.00;99.90;;;;;;5053802;28;20036;-71
2022/12/05 07:26:23;;;;;;;11.30;8.40;;;2.10;99.90;;;;;;5059209;28;20032;-70
2022/12/05 07:28:49;;;;;;;13.60;8.85;;;2.10;99.90;;;;;;5055709;28;20024;-71
2022/12/05 07:31:18;;;;;;;13.00;9.00;;;2.10;99.90;;;;;;5053366;28;20510;-70
2022/12/05 07:33:44;;;;;;;16.27;9.10;;;2.10;99.90;;;;;;5062622;28;20398;-71
2022/12/05 07:36:12;;;;;;;12.45;8.35;;;2.10;99.90;;;;;;5060863;28;20024;-71
2022/12/05 07:38:39;;;;;;;13.57;9.07;;;2.10;99.90;;;;;;5065943;28;20033;-70
2022/12/05 07:41:07;;;;;;;12.77;8.57;;;2.10;99.90;;;;;;5057657;28;20106;-71
2022/12/05 07:43:32;;;;;;;12.48;8.82;;;2.10;99.90;;;;;;5057318;28;20055;-71
2022/12/05 07:46:05;;;;;;;12.65;8.25;;;2.20;99.90;;;;;;5071265;28;20036;-70
2022/12/05 07:48:31;;;;;;;;;;;2.20;99.90;;;;;;5076162;28;20032;-71
2022/12/05 07:51:02;;;;;;;13.95;8.52;;;2.20;99.90;;;;;;5074613;28;20285;-71
2022/12/05 07:53:29;;;;;;;14.57;8.40;;;2.20;99.90;;;;;;5080035;28;20370;-71
2022/12/05 07:55:57;;;;;;;11.55;8.00;;;2.20;99.90;;;;;;5075559;28;20046;-71
2022/12/05 07:58:22;;;;;;;12.35;8.48;;;2.30;99.90;;;;;;5078315;28;20028;-71
2022/12/05 08:00:48;;;;;;;11.35;7.80;;;2.30;99.90;;;;;;5076660;28;20044;-71
2022/12/05 08:03:14;;;;;;;12.75;8.73;;;2.20;99.90;;;;;;5074474;28;20110;-71
2022/12/05 08:05:39;;;;;;;17.60;12.02;;;2.20;99.90;;;;;;5080211;28;20020;-71
2022/12/05 08:08:05;;;;;;;30.38;18.13;;;2.10;99.90;;;;;;5083021;28;20099;-71
2022/12/05 08:10:30;;;;;;;35.30;20.33;;;2.00;99.90;;;;;;5086558;28;20036;-72
2022/12/05 08:12:56;;;;;;;29.95;18.75;;;2.00;99.90;;;;;;5079299;28;20016;-71
2022/12/05 08:15:22;;;;;;;31.52;19.02;;;2.00;99.90;;;;;;5084122;28;20085;-72
2022/12/05 08:17:47;;;;;;;31.17;19.65;;;1.90;99.90;;;;;;5083685;28;20020;-72
2022/12/05 08:20:13;;;;;;;31.00;20.45;;;1.80;99.90;;;;;;5084844;28;20024;-72
2022/12/05 08:22:39;;;;;;;33.95;21.83;;;1.70;99.90;;;;;;5081778;28;20032;-72
2022/12/05 08:25:05;;;;;;;34.10;21.60;;;1.70;99.90;;;;;;5089600;28;20077;-72
2022/12/05 08:27:31;;;;;;;36.72;22.60;;;1.70;99.90;;;;;;5084313;28;20016;-72
2022/12/05 08:29:56;;;;;;;34.55;22.13;;;1.70;99.90;;;;;;5083984;28;20024;-71
2022/12/05 08:32:22;;;;;;;32.28;19.85;;;1.60;99.90;;;;;;5084980;28;20060;-71
2022/12/05 08:34:48;;;;;;;30.08;18.20;;;1.60;99.90;;;;;;5082077;28;20150;-71
2022/12/05 08:37:13;;;;;;;30.15;17.45;;;1.60;99.90;;;;;;5080515;28;20110;-72
2022/12/05 08:39:39;;;;;;;40.67;15.73;;;1.60;99.90;;;;;;5080738;28;20036;-72
2022/12/05 08:42:04;;;;;;;39.38;18.05;;;1.60;99.90;;;;;;5083332;28;20008;-71
2022/12/05 08:44:30;;;;;;;47.85;25.00;;;1.60;99.90;;;;;;5082155;28;20040;-71
2022/12/05 08:46:56;;;;;;;51.60;24.73;;;1.60;99.90;;;;;;5080593;28;20398;-71
2022/12/05 08:49:21;;;;;;;62.10;28.42;;;1.60;99.90;;;;;;5077345;28;20482;-71
2022/12/05 08:51:47;;;;;;;61.58;26.73;;;1.60;99.90;;;;;;5085602;28;20036;-71
2022/12/05 08:54:13;;;;;;;61.75;27.90;;;1.60;99.90;;;;;;5076129;28;20036;-71
2022/12/05 08:56:39;;;;;;;55.10;26.67;;;1.60;99.90;;;;;;5083214;28;20039;-71
2022/12/05 08:59:05;;;;;;;36.90;20.75;;;1.60;99.90;;;;;;5078620;28;20036;-71
2022/12/05 09:01:32;;;;;;;30.77;18.25;;;1.60;99.90;;;;;;5079969;28;20031;-71
2022/12/05 09:03:59;;;;;;;42.03;23.60;;;1.70;99.90;;;;;;5077164;28;20508;-72
2022/12/05 09:06:26;;;;;;;49.13;27.55;;;1.60;99.90;;;;;;5078526;28;20051;-71
2022/12/05 09:09:01;;;;;;;39.00;22.73;;;1.70;99.90;;;;;;5081521;28;20047;-72
2022/12/05 09:11:29;;;;;;;30.92;19.55;;;1.70;99.90;;;;;;5078345;28;20059;-71
2022/12/05 09:13:57;;;;;;;26.40;15.95;;;1.80;99.90;;;;;;5082620;28;20099;-72
2022/12/05 09:16:25;;;;;;;22.90;15.15;;;1.70;99.90;;;;;;5080072;28;20043;-71
2022/12/05 09:18:51;;;;;;;22.25;14.43;;;1.80;99.90;;;;;;5083698;28;20028;-71
2022/12/05 09:21:20;;;;;;;24.23;14.38;;;1.70;99.90;;;;;;5078460;28;20027;-71
2022/12/05 09:23:46;;;;;;;19.85;13.75;;;1.80;99.90;;;;;;5075616;28;20024;-72
2022/12/05 09:26:15;;;;;;;21.85;13.90;;;1.30;99.90;;;;;;5076749;28;20092;-71
2022/12/05 09:28:41;;;;;;;21.77;14.38;;;3.00;99.90;;;;;;5083977;28;20028;-71
2022/12/05 09:31:16;;;;;;;23.42;14.25;;;1.20;99.90;;;;;;5077133;28;20048;-71
2022/12/05 09:33:42;;;;;;;29.15;16.65;;;2.00;99.90;;;;;;5080947;28;20189;-71
2022/12/05 09:36:15;;;;;;;25.00;16.02;;;2.10;99.90;;;;;;5076732;28;20058;-71
2022/12/05 09:38:41;;;;;;;;;;;2.00;99.90;;;;;;5083056;28;20028;-71
2022/12/05 09:44:24;;;;;;;22.08;12.85;;;2.10;99.90;;;;;;5076987;28;20421;-72
2022/12/05 09:46:55;;;;;;;22.48;13.50;;;2.30;99.90;;;;;;5078175;28;20024;-71
2022/12/05 09:49:23;;;;;;;23.55;14.43;;;2.30;99.90;;;;;;5073174;28;20066;-72
2022/12/05 09:51:52;;;;;;;26.15;16.70;;;2.30;99.90;;;;;;5079827;28;20028;-72
2022/12/05 09:54:18;;;;;;;28.55;17.13;;;2.30;99.90;;;;;;5078791;28;20073;-72
2022/12/05 09:56:49;;;;;;;30.65;18.48;;;2.30;99.90;;;;;;5071592;28;20052;-72
2022/12/05 09:59:16;;;;;;;31.35;18.88;;;2.40;99.90;;;;;;5080100;28;20046;-72
2022/12/05 10:02:17;;;;;;;28.95;17.52;;;2.40;99.90;;;;;;5072519;28;20107;-73
2022/12/05 10:04:57;;;;;;;25.60;15.10;;;2.40;99.90;;;;;;5076131;28;20032;-72
2022/12/05 10:07:38;;;;;;;22.75;14.43;;;2.50;99.90;;;;;;5068585;28;20386;-72
2022/12/05 10:10:07;;;;;;;28.25;18.20;;;2.50;99.90;;;;;;5079079;28;20406;-72
2022/12/05 10:12:39;;;;;;;22.45;14.45;;;;;;;;;;5077097;28;20063;-71
2022/12/05 10:15:36;;;;;;;23.93;14.00;;;2.50;99.90;;;;;;5071195;28;20109;-74
2022/12/05 10:18:08;;;;;;;21.83;14.02;;;2.50;99.90;;;;;;5082919;28;20799;-73
2022/12/05 10:20:49;;;;;;;24.20;14.45;;;2.60;99.90;;;;;;5075057;28;20035;-73
2022/12/05 10:23:22;;;;;;;26.33;14.32;;;2.60;99.90;;;;;;5075271;28;20103;-73
2022/12/05 10:25:54;;;;;;;16.05;10.43;;;2.60;99.90;;;;;;5077106;28;20092;-74
2022/12/05 10:28:34;;;;;;;25.25;15.80;;;2.60;99.90;;;;;;5080744;28;20062;-73
2022/12/05 10:31:04;;;;;;;24.65;16.63;;;2.60;99.90;;;;;;5072395;28;20395;-73
2022/12/05 10:33:36;;;;;;;41.42;18.45;;;2.50;99.90;;;;;;5078223;28;20044;-74
2022/12/05 10:36:09;;;;;;;28.67;18.27;;;2.40;99.90;;;;;;5079365;28;20079;-73
2022/12/05 10:38:34;;;;;;;26.38;16.45;;;2.40;99.90;;;;;;5077843;28;20436;-73
2022/12/05 10:41:09;;;;;;;25.30;16.05;;;2.30;99.90;;;;;;5076044;28;20039;-74
2022/12/05 10:43:37;;;;;;;25.13;15.20;;;2.30;99.90;;;;;;5072072;28;20053;-73
2022/12/05 10:46:04;;;;;;;26.95;14.23;;;2.20;99.90;;;;;;5083506;28;20073;-73
2022/12/05 10:48:35;;;;;;;27.85;14.70;;;2.20;99.90;;;;;;5077552;28;20095;-75
2022/12/05 10:51:01;;;;;;;30.08;14.82;;;2.20;99.90;;;;;;5080009;28;20119;-72
2022/12/05 10:53:38;;;;;;;25.65;14.43;;;2.10;99.90;;;;;;5074721;28;20185;-72
2022/12/05 10:56:35;;;;;;;27.10;14.10;;;2.20;99.90;;;;;;5078061;28;20400;-73
2022/12/05 10:59:01;;;;;;;23.38;13.40;;;2.10;99.90;;;;;;5076632;28;20174;-73
2022/12/05 11:01:27;;;;;;;19.45;13.10;;;2.10;99.90;;;;;;5074427;28;20545;-73
2022/12/05 11:03:58;;;;;;;20.88;13.02;;;2.10;99.90;;;;;;5070553;28;20033;-76
2022/12/05 11:06:31;;;;;;;24.48;13.00;;;2.10;99.90;;;;;;5071000;28;20085;-75
2022/12/05 11:09:02;;;;;;;;;;;2.10;99.90;;;;;;5077042;28;20036;-72
2022/12/05 11:11:32;;;;;;;25.13;12.60;;;2.10;99.90;;;;;;5075320;28;20271;-74
2022/12/05 11:14:05;;;;;;;21.48;13.70;;;2.10;99.90;;;;;;5075066;28;20043;-73
2022/12/05 11:16:36;;;;;;;25.63;16.10;;;2.10;99.90;;;;;;5072543;28;20553;-74
2022/12/05 11:19:20;;;;;;;25.08;16.40;;;2.00;99.90;;;;;;5075804;28;20086;-73
2022/12/05 11:21:47;;;;;;;24.13;15.90;;;2.00;99.90;;;;;;5070631;28;20125;-73
2022/12/05 11:24:24;;;;;;;32.58;16.00;;;2.10;99.90;;;;;;5073444;28;20032;-74
2022/12/05 11:26:50;;;;;;;36.42;15.90;;;2.10;99.90;;;;;;5071091;28;20051;-73
2022/12/05 11:29:37;;;;;;;30.23;15.73;;;2.10;99.90;;;;;;5081057;28;20684;-72
2022/12/05 11:32:18;;;;;;;38.28;15.43;;;2.10;99.90;;;;;;5071269;28;20071;-73
2022/12/05 11:34:57;;;;;;;25.95;14.95;;;2.10;99.90;;;;;;5075694;28;20040;-73
2022/12/05 11:37:28;;;;;;;36.55;15.98;;;2.10;99.90;;;;;;5075417;28;20122;-74
2022/12/05 11:39:54;;;;;;;24.50;15.60;;;2.10;99.90;;;;;;5073770;28;20036;-73
2022/12/05 11:42:41;;;;;;;35.20;17.45;;;2.10;99.90;;;;;;5078598;28;20447;-73
2022/12/05 11:45:23;;;;;;;35.30;16.90;;;2.20;99.90;;;;;;5075876;28;20495;-73
2022/12/05 11:47:51;;;;;;;28.55;16.15;;;2.10;99.90;;;;;;5078108;28;20182;-73
2022/12/05 11:50:43;;;;;;;51.90;17.17;;;2.10;99.90;;;;;;5080536;28;20668;-73
2022/12/05 11:53:46;;;;;;;37.35;19.00;;;2.20;99.90;;;;;;5076299;28;20028;-73
2022/12/05 11:56:56;;;;;;;55.28;22.38;;;2.20;99.90;;;;;;5082097;28;20070;-75
2022/12/05 11:59:36;;;;;;;46.78;23.05;;;2.20;99.90;;;;;;5060503;28;20058;-73
2022/12/05 12:02:33;;;;;;;61.17;27.30;;;2.10;99.90;;;;;;5074088;28;20039;-73
2022/12/05 12:05:10;;;;;;;47.33;23.85;;;2.10;99.90;;;;;;5075826;28;20028;-74
2022/12/05 12:07:55;;;;;;;50.72;25.65;;;2.10;99.90;;;;;;5076805;28;20031;-75
2022/12/05 12:10:52;;;;;;;44.78;22.27;;;2.20;99.90;;;;;;5079094;28;20566;-75
2022/12/05 12:13:41;;;;;;;46.30;20.23;;;2.20;99.90;;;;;;5064141;28;20032;-75
2022/12/05 12:16:18;;;;;;;42.42;21.17;;;2.20;99.90;;;;;;5075061;28;20035;-74
2022/12/05 12:18:44;;;;;;;44.42;22.42;;;2.20;99.90;;;;;;5077454;28;20039;-74
2022/12/05 12:21:35;;;;;;;39.33;19.98;;;2.20;99.90;;;;;;5080836;28;20224;-75
2022/12/05 12:24:13;;;;;;;41.42;20.55;;;2.20;99.90;;;;;;5074702;28;20024;-74
2022/12/05 12:26:48;;;;;;;43.25;19.83;;;2.20;99.90;;;;;;5081883;28;20060;-74
2022/12/05 12:29:17;;;;;;;43.42;19.70;;;;;;;;;;5078249;28;20060;-74
2022/12/05 12:31:55;;;;;;;42.20;20.23;;;;;;;;;;5079969;28;20559;-76
2022/12/05 12:34:29;;;;;;;44.97;22.73;;;2.10;99.90;;;;;;5078506;28;20136;-75
2022/12/05 12:37:13;;;;;;;51.50;25.65;;;2.10;99.90;;;;;;5071246;28;20089;-77
2022/12/05 12:39:52;;;;;;;44.90;23.58;;;2.10;99.90;;;;;;5074172;28;20027;-76
2022/12/05 12:42:30;;;;;;;43.85;22.35;;;2.10;99.90;;;;;;5078850;28;20032;-76
2022/12/05 12:45:21;;;;;;;44.65;22.55;;;2.10;99.90;;;;;;5074149;28;20516;-75
2022/12/05 12:47:54;;;;;;;40.25;21.27;;;2.20;99.90;;;;;;5076932;28;20055;-75
2022/12/05 12:50:33;;;;;;;42.42;21.40;;;2.20;99.90;;;;;;5075815;28;20063;-75
2022/12/05 12:53:28;;;;;;;40.08;20.83;;;2.20;99.90;;;;;;5082274;28;20028;-75
2022/12/05 12:56:22;;;;;;;40.05;20.25;;;2.20;99.90;;;;;;5074490;28;20439;-75
2022/12/05 12:59:01;;;;;;;45.63;19.88;;;2.20;99.90;;;;;;5072894;28;20039;-75
2022/12/05 13:01:41;;;;;;;39.60;21.25;;;2.30;99.90;;;;;;5079779;28;20036;-75
2022/12/05 13:04:22;;;;;;;43.28;22.33;;;2.30;99.90;;;;;;5078764;28;20020;-75
2022/12/05 13:07:07;;;;;;;39.40;21.67;;;2.30;99.90;;;;;;5073964;28;20059;-76
2022/12/05 13:09:42;;;;;;;41.05;22.08;;;2.30;99.90;;;;;;5080132;28;20112;-75